Time;durP1;ratioP1;P1;durP2;ratioP2;P2;SDS_P1;SDS_P2;PMS_P1;PMS_P2;Temp;Humidity;BMP_temperature;BMP_pressure;BME280_temperature;BME280_humidity;BME280_pressure;Samples;Min_cycle;Max_cycle;Signal;HPM_P1;HPM_P2
2022/10/21 00:00:33;;;;;;;1.03;1.03;;;15.30;99.90;;;;;;5014741;28;20460;-68
2022/10/21 00:02:59;;;;;;;0.80;0.80;;;15.20;99.90;;;;;;5014962;28;20411;-70
2022/10/21 00:05:25;;;;;;;0.40;0.40;;;15.20;99.90;;;;;;5014952;28;20566;-69
2022/10/21 00:07:51;;;;;;;2.83;2.10;;;15.20;99.90;;;;;;5014734;28;20514;-71
2022/10/21 00:10:16;;;;;;;1.50;1.40;;;15.20;99.90;;;;;;5014766;28;20174;-72
2022/10/21 00:12:42;;;;;;;2.53;2.43;;;15.30;99.90;;;;;;5013633;28;20168;-69
2022/10/21 00:15:09;;;;;;;2.60;2.00;;;15.40;99.90;;;;;;5014864;28;20579;-71
2022/10/21 00:17:37;;;;;;;3.07;1.17;;;15.40;99.90;;;;;;5014598;28;20182;-70
2022/10/21 00:20:04;;;;;;;0.87;0.87;;;15.40;99.90;;;;;;5014497;28;20911;-69
2022/10/21 00:22:30;;;;;;;0.53;0.53;;;15.30;99.90;;;;;;5014635;28;20473;-70
2022/10/21 00:24:56;;;;;;;1.03;1.00;;;15.30;99.90;;;;;;5014797;28;20825;-71
2022/10/21 00:27:22;;;;;;;2.30;1.17;;;15.20;99.90;;;;;;5014598;28;20412;-72
2022/10/21 00:29:47;;;;;;;1.53;1.43;;;15.40;99.90;;;;;;5014358;28;20633;-72
2022/10/21 00:32:13;;;;;;;0.70;0.70;;;15.40;99.90;;;;;;5014041;28;20253;-69
2022/10/21 00:34:42;;;;;;;1.10;1.10;;;15.30;99.90;;;;;;5014799;28;20617;-71
2022/10/21 00:37:11;;;;;;;0.83;0.73;;;15.30;99.90;;;;;;5014448;28;20171;-72
2022/10/21 00:39:37;;;;;;;0.87;0.87;;;15.30;99.90;;;;;;5014192;28;20437;-69
2022/10/21 00:42:04;;;;;;;1.40;1.40;;;15.30;99.90;;;;;;5014380;28;20869;-70
2022/10/21 00:44:30;;;;;;;0.80;0.80;;;15.20;99.90;;;;;;5014434;28;20405;-71
2022/10/21 00:47:14;;;;;;;0.40;0.40;;;15.00;99.90;;;;;;5014098;28;20434;-69
2022/10/21 00:49:47;;;;;;;1.50;1.40;;;15.10;99.90;;;;;;5014039;28;20210;-72
2022/10/21 00:52:16;;;;;;;0.40;0.40;;;15.20;99.90;;;;;;5014423;28;20456;-70
2022/10/21 00:54:43;;;;;;;1.50;1.37;;;15.20;99.90;;;;;;5014210;28;20413;-69
2022/10/21 00:57:10;;;;;;;1.10;0.80;;;15.20;99.90;;;;;;5014058;28;20749;-70
2022/10/21 00:59:41;;;;;;;0.40;0.40;;;15.30;99.90;;;;;;5014000;28;20427;-68
2022/10/21 01:02:07;;;;;;;1.57;0.90;;;15.30;99.90;;;;;;5014330;28;20455;-69
2022/10/21 01:04:33;;;;;;;0.73;0.73;;;15.30;99.90;;;;;;5014012;28;20946;-71
2022/10/21 01:07:01;;;;;;;3.30;1.20;;;15.30;99.90;;;;;;5014070;28;20488;-71
2022/10/21 01:09:28;;;;;;;2.10;1.17;;;15.30;99.90;;;;;;5013781;28;20846;-70
2022/10/21 01:11:55;;;;;;;0.50;0.50;;;15.20;99.90;;;;;;5013863;28;20427;-70
2022/10/21 01:14:35;;;;;;;0.83;0.83;;;15.20;99.90;;;;;;5013888;28;20417;-72
2022/10/21 01:17:07;;;;;;;0.80;0.73;;;15.20;99.90;;;;;;5013911;28;20401;-71
2022/10/21 01:19:35;;;;;;;0.70;0.70;;;15.30;99.90;;;;;;5013594;28;20432;-71
2022/10/21 01:22:27;;;;;;;0.40;0.40;;;15.40;99.90;;;;;;5013783;28;20440;-69
2022/10/21 01:25:15;;;;;;;0.30;0.30;;;15.30;99.90;;;;;;5006460;28;20424;-71
2022/10/21 01:27:59;;;;;;;0.40;0.40;;;15.30;99.90;;;;;;5013702;28;20466;-71
2022/10/21 01:30:51;;;;;;;0.77;0.77;;;15.30;99.90;;;;;;5013431;28;20891;-70
2022/10/21 01:33:41;;;;;;;1.83;1.73;;;15.30;99.90;;;;;;5011513;28;20494;-70
2022/10/21 01:36:15;;;;;;;0.70;0.70;;;15.20;99.90;;;;;;5013905;28;20442;-70
2022/10/21 01:38:46;;;;;;;1.80;1.70;;;15.20;99.90;;;;;;5013719;28;20432;-72
2022/10/21 01:41:16;;;;;;;3.80;1.90;;;15.20;99.90;;;;;;5013745;28;20546;-70
2022/10/21 01:44:02;;;;;;;1.20;1.10;;;15.20;99.90;;;;;;5016953;28;20772;-70
2022/10/21 01:46:54;;;;;;;0.83;0.83;;;15.30;99.90;;;;;;5017466;28;20480;-68
2022/10/21 01:49:34;;;;;;;1.63;1.53;;;15.30;99.90;;;;;;5005502;28;20430;-71
2022/10/21 01:52:01;;;;;;;0.43;0.43;;;15.40;99.90;;;;;;5017688;28;20404;-69
2022/10/21 01:54:53;;;;;;;1.17;1.07;;;15.30;99.90;;;;;;5017593;28;21020;-69
2022/10/21 01:57:21;;;;;;;1.37;0.87;;;15.10;99.90;;;;;;5017408;28;20505;-72
2022/10/21 01:59:47;;;;;;;0.40;0.40;;;15.30;99.90;;;;;;5017134;28;20423;-68
2022/10/21 02:02:15;;;;;;;0.80;0.80;;;15.30;99.90;;;;;;5017186;28;20460;-68
2022/10/21 02:04:44;;;;;;;0.60;0.60;;;15.30;99.90;;;;;;5017427;28;20410;-70
2022/10/21 02:07:10;;;;;;;0.43;0.43;;;15.30;99.90;;;;;;5017296;28;20433;-72
2022/10/21 02:09:35;;;;;;;0.70;0.70;;;15.30;99.90;;;;;;5016854;28;20815;-71
2022/10/21 02:12:03;;;;;;;0.50;0.50;;;15.40;99.90;;;;;;5015943;28;20913;-70
2022/10/21 02:14:47;;;;;;;0.53;0.53;;;15.30;99.90;;;;;;5017073;28;20173;-71
2022/10/21 02:17:16;;;;;;;0.70;0.70;;;15.30;99.90;;;;;;5017260;28;20767;-72
2022/10/21 02:19:42;;;;;;;1.33;1.23;;;15.30;99.90;;;;;;5016810;28;20553;-71
2022/10/21 02:22:12;;;;;;;0.90;0.90;;;15.40;99.90;;;;;;5016968;28;20449;-71
2022/10/21 02:24:50;;;;;;;1.00;0.90;;;15.40;99.90;;;;;;5016857;28;20402;-72
2022/10/21 02:27:16;;;;;;;0.43;0.43;;;15.50;99.90;;;;;;5016992;28;20394;-72
2022/10/21 02:29:43;;;;;;;3.70;1.17;;;15.40;99.90;;;;;;5016584;28;20494;-71
2022/10/21 02:32:30;;;;;;;0.90;0.90;;;15.30;99.90;;;;;;5017233;28;20414;-70
2022/10/21 02:35:08;;;;;;;0.50;0.50;;;15.30;99.90;;;;;;5016812;28;20406;-70
2022/10/21 02:37:59;;;;;;;0.43;0.43;;;15.30;99.90;;;;;;5016904;28;20434;-70
2022/10/21 02:40:38;;;;;;;1.90;1.80;;;15.30;99.90;;;;;;5016512;28;20399;-69
2022/10/21 02:43:09;;;;;;;0.40;0.40;;;15.30;99.90;;;;;;5016684;28;20398;-69
2022/10/21 02:45:35;;;;;;;0.97;0.90;;;15.40;99.90;;;;;;5016592;28;20808;-70
2022/10/21 02:48:01;;;;;;;0.70;0.47;;;15.40;99.90;;;;;;5016323;28;20430;-71
2022/10/21 02:50:26;;;;;;;1.50;1.37;;;15.40;99.90;;;;;;5016307;28;20335;-70
2022/10/21 02:52:52;;;;;;;0.40;0.40;;;15.30;99.90;;;;;;5016528;28;20167;-70
2022/10/21 02:55:18;;;;;;;1.37;1.27;;;;;;;;;;5015761;28;20174;-69
2022/10/21 02:57:44;;;;;;;1.57;1.03;;;15.50;99.90;;;;;;5016352;28;20240;-69
2022/10/21 03:00:10;;;;;;;1.13;1.00;;;15.50;99.90;;;;;;5015920;28;20820;-72
2022/10/21 03:02:36;;;;;;;0.40;0.40;;;15.40;99.90;;;;;;5016142;28;20230;-69
2022/10/21 03:05:01;;;;;;;1.60;1.30;;;15.40;99.90;;;;;;5016131;28;20410;-69
2022/10/21 03:07:27;;;;;;;0.60;0.60;;;15.20;99.90;;;;;;5016032;28;20222;-71
2022/10/21 03:09:52;;;;;;;1.03;0.93;;;15.40;99.90;;;;;;5015831;28;20168;-69
2022/10/21 03:12:18;;;;;;;1.13;0.70;;;15.40;99.90;;;;;;5016084;28;20171;-71
2022/10/21 03:14:44;;;;;;;0.50;0.50;;;15.50;99.90;;;;;;5015905;28;20190;-72
2022/10/21 03:17:09;;;;;;;0.70;0.70;;;15.50;99.90;;;;;;5015935;28;20537;-70
2022/10/21 03:19:35;;;;;;;1.73;0.60;;;15.40;99.90;;;;;;5015628;28;20668;-69
2022/10/21 03:22:01;;;;;;;0.40;0.40;;;15.30;99.90;;;;;;5015806;28;20199;-70
2022/10/21 03:24:26;;;;;;;2.23;1.60;;;15.40;99.90;;;;;;5015851;28;20168;-72
2022/10/21 03:26:52;;;;;;;0.80;0.50;;;15.50;99.90;;;;;;5015820;28;20172;-68
2022/10/21 03:29:17;;;;;;;0.87;0.87;;;15.40;99.90;;;;;;5015387;28;20191;-72
2022/10/21 03:31:43;;;;;;;0.47;0.47;;;15.40;99.90;;;;;;5015789;28;20182;-71
2022/10/21 03:34:09;;;;;;;0.40;0.40;;;15.40;99.90;;;;;;5015766;28;20244;-67
2022/10/21 03:36:34;;;;;;;1.23;0.97;;;15.40;99.90;;;;;;5015404;28;20218;-69
2022/10/21 03:39:00;;;;;;;1.20;1.03;;;15.30;99.90;;;;;;5015409;28;20596;-70
2022/10/21 03:41:25;;;;;;;2.87;1.60;;;15.30;99.90;;;;;;5015383;28;20195;-71
2022/10/21 03:43:51;;;;;;;1.00;1.00;;;15.30;99.90;;;;;;5015545;28;20247;-71
2022/10/21 03:46:17;;;;;;;1.27;1.07;;;15.40;99.90;;;;;;5015173;28;20186;-71
2022/10/21 03:48:42;;;;;;;1.57;0.83;;;15.40;99.90;;;;;;5015302;28;20189;-71
2022/10/21 03:51:08;;;;;;;1.43;1.33;;;15.40;99.90;;;;;;5015006;28;20172;-69
2022/10/21 03:53:33;;;;;;;1.20;1.00;;;15.40;99.90;;;;;;5013836;28;20197;-70
2022/10/21 03:55:59;;;;;;;1.80;1.70;;;15.40;99.90;;;;;;5015193;28;20174;-72
2022/10/21 03:58:25;;;;;;;0.90;0.70;;;15.40;99.90;;;;;;5015004;28;20564;-69
2022/10/21 04:00:52;;;;;;;1.40;1.37;;;15.40;99.90;;;;;;5014775;28;20555;-69
2022/10/21 04:03:17;;;;;;;1.73;0.93;;;15.40;99.90;;;;;;5015175;28;20179;-72
2022/10/21 04:05:43;;;;;;;2.17;1.33;;;15.40;99.90;;;;;;5014105;28;20418;-72
2022/10/21 04:08:09;;;;;;;2.77;1.00;;;15.50;99.90;;;;;;5014822;28;20671;-69
2022/10/21 04:10:34;;;;;;;1.37;0.80;;;15.40;99.90;;;;;;5014659;28;20220;-70
2022/10/21 04:13:00;;;;;;;0.63;0.60;;;15.40;99.90;;;;;;5015103;28;20174;-72
2022/10/21 04:15:26;;;;;;;1.47;1.37;;;15.40;99.90;;;;;;5014848;28;20187;-72
2022/10/21 04:17:51;;;;;;;3.23;1.63;;;15.50;99.90;;;;;;5014651;28;20280;-70
2022/10/21 04:20:17;;;;;;;3.40;1.33;;;15.60;99.90;;;;;;5014765;28;20261;-69
2022/10/21 04:22:43;;;;;;;1.07;1.00;;;15.50;99.90;;;;;;5014743;28;20172;-71
2022/10/21 04:25:09;;;;;;;0.50;0.50;;;15.40;99.90;;;;;;5014763;28;20247;-72
2022/10/21 04:27:44;;;;;;;2.43;0.83;;;15.30;99.90;;;;;;5142066;27;20306;-69
2022/10/21 04:30:10;;;;;;;0.77;0.77;;;15.30;99.90;;;;;;5111347;28;20412;-70
2022/10/21 04:32:35;;;;;;;1.23;0.77;;;15.30;99.90;;;;;;5111425;28;20209;-71
2022/10/21 04:35:01;;;;;;;1.60;1.20;;;15.40;99.90;;;;;;5111229;28;20447;-68
2022/10/21 04:37:27;;;;;;;0.70;0.70;;;15.40;99.90;;;;;;5111147;28;20184;-70
2022/10/21 04:39:52;;;;;;;1.03;1.03;;;15.40;99.90;;;;;;5110978;28;20164;-69
2022/10/21 04:42:18;;;;;;;0.57;0.57;;;15.30;99.90;;;;;;5111160;28;20196;-70
2022/10/21 04:44:43;;;;;;;0.70;0.70;;;15.30;99.90;;;;;;5111118;28;20175;-68
2022/10/21 04:47:09;;;;;;;1.27;0.70;;;15.20;99.90;;;;;;5111041;28;20200;-70
2022/10/21 04:49:35;;;;;;;0.77;0.77;;;15.20;99.90;;;;;;5110782;28;20189;-71
2022/10/21 04:52:00;;;;;;;1.57;1.07;;;15.20;99.90;;;;;;5111125;28;20218;-72
2022/10/21 04:54:26;;;;;;;1.00;0.90;;;15.20;99.90;;;;;;5111008;28;20173;-70
2022/10/21 04:56:52;;;;;;;2.30;0.80;;;15.20;99.90;;;;;;5111085;28;20174;-71
2022/10/21 04:59:17;;;;;;;0.60;0.60;;;15.30;99.90;;;;;;5110919;28;20290;-70
2022/10/21 05:01:43;;;;;;;0.60;0.60;;;15.30;99.90;;;;;;5111166;28;20302;-70
2022/10/21 05:04:08;;;;;;;1.70;1.17;;;15.30;99.90;;;;;;5110867;28;20190;-71
2022/10/21 05:06:34;;;;;;;1.87;1.77;;;15.30;99.90;;;;;;5110791;28;20194;-68
2022/10/21 05:09:00;;;;;;;1.13;0.90;;;15.30;99.90;;;;;;5110307;28;20190;-71
2022/10/21 05:11:25;;;;;;;0.57;0.57;;;15.20;99.90;;;;;;5110593;28;20617;-70
2022/10/21 05:13:51;;;;;;;6.10;2.70;;;15.20;99.90;;;;;;5110528;28;20180;-71
2022/10/21 05:16:17;;;;;;;2.43;1.17;;;15.20;99.90;;;;;;5110547;28;20176;-71
2022/10/21 05:18:42;;;;;;;0.50;0.50;;;15.20;99.90;;;;;;5110323;28;20736;-72
2022/10/21 05:21:08;;;;;;;1.17;1.10;;;15.30;99.90;;;;;;5110391;28;20579;-72
2022/10/21 05:23:33;;;;;;;1.10;1.10;;;15.40;99.90;;;;;;5110469;28;20168;-71
2022/10/21 05:25:59;;;;;;;1.43;1.33;;;15.30;99.90;;;;;;5110508;28;20610;-71
2022/10/21 05:28:25;;;;;;;1.20;1.10;;;15.30;99.90;;;;;;5110425;28;20227;-71
2022/10/21 05:30:52;;;;;;;1.40;1.27;;;15.20;99.90;;;;;;5110106;28;20196;-71
2022/10/21 05:33:17;;;;;;;0.97;0.97;;;15.10;99.90;;;;;;5110252;28;20179;-68
2022/10/21 05:35:43;;;;;;;0.60;0.50;;;15.20;99.90;;;;;;5110245;28;20413;-69
2022/10/21 05:38:09;;;;;;;1.30;1.20;;;15.20;99.90;;;;;;5101768;28;20195;-71
2022/10/21 05:40:35;;;;;;;2.10;0.80;;;15.20;99.90;;;;;;5096396;28;20180;-68
2022/10/21 05:43:00;;;;;;;1.40;1.27;;;15.30;99.90;;;;;;5096448;28;20630;-71
2022/10/21 05:45:26;;;;;;;0.70;0.70;;;15.30;99.90;;;;;;5096400;28;20173;-70
2022/10/21 05:47:52;;;;;;;0.83;0.77;;;15.40;99.90;;;;;;5096550;28;20687;-67
2022/10/21 05:50:18;;;;;;;1.20;0.90;;;15.40;99.90;;;;;;5096144;28;20409;-71
2022/10/21 05:52:43;;;;;;;1.20;1.10;;;15.30;99.90;;;;;;5096355;28;20172;-70
2022/10/21 05:55:09;;;;;;;4.13;1.77;;;15.20;99.90;;;;;;5096171;28;20177;-71
2022/10/21 05:57:37;;;;;;;0.50;0.40;;;15.20;99.90;;;;;;5096457;28;20173;-68
2022/10/21 06:00:06;;;;;;;0.70;0.70;;;15.10;99.90;;;;;;5096030;28;20460;-71
2022/10/21 06:02:31;;;;;;;1.33;1.23;;;15.10;99.90;;;;;;5096181;28;20411;-68
2022/10/21 06:04:57;;;;;;;0.57;0.57;;;15.20;99.90;;;;;;5096191;28;20407;-70
2022/10/21 06:07:23;;;;;;;0.60;0.60;;;15.20;99.90;;;;;;5095949;28;20454;-71
2022/10/21 06:09:49;;;;;;;6.43;1.50;;;15.20;99.90;;;;;;5095915;28;20179;-72
2022/10/21 06:12:14;;;;;;;0.57;0.57;;;15.20;99.90;;;;;;5095935;28;20171;-71
2022/10/21 06:14:40;;;;;;;1.27;1.00;;;15.20;99.90;;;;;;5095893;28;20452;-68
2022/10/21 06:17:05;;;;;;;0.50;0.50;;;15.10;99.90;;;;;;5095922;28;20180;-70
2022/10/21 06:19:31;;;;;;;0.70;0.70;;;15.10;99.90;;;;;;5095508;28;20192;-71
2022/10/21 06:21:57;;;;;;;0.50;0.50;;;15.10;99.90;;;;;;5095846;28;20258;-70
2022/10/21 06:24:24;;;;;;;1.57;1.47;;;15.10;99.90;;;;;;5095595;28;20180;-71
2022/10/21 06:26:50;;;;;;;0.53;0.53;;;15.10;99.90;;;;;;5095360;28;20831;-69
2022/10/21 06:29:16;;;;;;;0.30;0.30;;;15.10;99.90;;;;;;5095442;28;20563;-68
2022/10/21 06:31:42;;;;;;;0.80;0.63;;;15.00;99.90;;;;;;5095618;28;20438;-68
2022/10/21 06:34:08;;;;;;;0.50;0.50;;;15.00;99.90;;;;;;5095609;28;20401;-70
2022/10/21 06:36:34;;;;;;;0.97;0.97;;;15.00;99.90;;;;;;5095531;28;20952;-70
2022/10/21 06:38:59;;;;;;;1.07;0.90;;;14.90;99.90;;;;;;5095033;28;20192;-71
2022/10/21 06:41:25;;;;;;;0.40;0.40;;;15.00;99.90;;;;;;5095472;28;20258;-70
2022/10/21 06:43:51;;;;;;;0.40;0.40;;;15.10;99.90;;;;;;5095331;28;20260;-69
2022/10/21 06:46:16;;;;;;;0.40;0.40;;;15.20;99.90;;;;;;5095274;28;20737;-71
2022/10/21 06:48:42;;;;;;;0.47;0.40;;;15.20;99.90;;;;;;5094677;28;20189;-67
2022/10/21 06:51:28;;;;;;;0.40;0.40;;;15.20;99.90;;;;;;5094509;28;20173;-70
2022/10/21 06:53:57;;;;;;;0.60;0.60;;;15.10;99.90;;;;;;5094621;28;20189;-70
2022/10/21 06:56:24;;;;;;;1.30;1.20;;;15.10;99.90;;;;;;5095060;28;20403;-70
2022/10/21 06:58:50;;;;;;;0.40;0.40;;;15.10;99.90;;;;;;5094727;28;20842;-71
2022/10/21 07:01:22;;;;;;;0.73;0.73;;;15.10;99.90;;;;;;5095174;28;20408;-70
2022/10/21 07:03:48;;;;;;;0.30;0.30;;;15.10;99.90;;;;;;5095065;28;20467;-71
2022/10/21 07:06:14;;;;;;;1.07;0.87;;;15.10;99.90;;;;;;5094853;28;20943;-71
2022/10/21 07:08:40;;;;;;;6.23;0.87;;;15.10;99.90;;;;;;5094707;28;20426;-68
2022/10/21 07:11:06;;;;;;;0.93;0.93;;;15.10;99.90;;;;;;5094546;28;20938;-71
2022/10/21 07:13:34;;;;;;;2.60;0.90;;;15.20;99.90;;;;;;5094749;28;20411;-71
2022/10/21 07:16:10;;;;;;;0.60;0.50;;;15.20;99.90;;;;;;5094767;28;20409;-68
2022/10/21 07:18:36;;;;;;;0.60;0.60;;;15.20;99.90;;;;;;5094761;28;20423;-71
2022/10/21 07:21:04;;;;;;;0.60;0.60;;;15.10;99.90;;;;;;5093116;28;20418;-69
2022/10/21 07:23:30;;;;;;;0.40;0.40;;;15.10;99.90;;;;;;5094580;28;20184;-71
2022/10/21 07:25:55;;;;;;;0.70;0.70;;;15.10;99.90;;;;;;5094341;28;20458;-69
2022/10/21 07:28:21;;;;;;;0.50;0.50;;;15.10;99.90;;;;;;5094466;28;20549;-70
2022/10/21 07:30:48;;;;;;;0.57;0.57;;;15.10;99.90;;;;;;5094097;28;20648;-70
2022/10/21 07:33:14;;;;;;;0.40;0.40;;;15.10;99.90;;;;;;5094708;28;20203;-69
2022/10/21 07:35:40;;;;;;;1.43;0.63;;;15.20;99.90;;;;;;5094413;28;20446;-70
2022/10/21 07:38:06;;;;;;;0.40;0.40;;;15.30;99.90;;;;;;5094201;28;20431;-70
2022/10/21 07:40:37;;;;;;;0.40;0.40;;;15.30;99.90;;;;;;5092839;28;20194;-69
2022/10/21 07:43:03;;;;;;;0.60;0.60;;;15.40;99.90;;;;;;5094313;28;20490;-70
2022/10/21 07:45:28;;;;;;;0.70;0.70;;;15.20;99.90;;;;;;5094193;28;20896;-71
2022/10/21 07:47:54;;;;;;;0.70;0.70;;;15.20;99.90;;;;;;5093898;28;20460;-70
2022/10/21 07:50:19;;;;;;;0.57;0.57;;;15.00;99.90;;;;;;5093943;28;20169;-70
2022/10/21 07:52:45;;;;;;;0.40;0.40;;;15.00;99.90;;;;;;5094091;28;20165;-70
2022/10/21 07:55:12;;;;;;;1.33;1.23;;;15.00;99.90;;;;;;5094087;28;20206;-70
2022/10/21 07:57:38;;;;;;;2.57;2.00;;;15.00;99.90;;;;;;5094050;28;20245;-68
2022/10/21 08:00:05;;;;;;;2.20;0.70;;;15.10;99.90;;;;;;5093558;28;20414;-72
2022/10/21 08:02:31;;;;;;;12.90;2.00;;;15.10;99.90;;;;;;5093937;28;20557;-67
2022/10/21 08:04:56;;;;;;;1.20;1.13;;;15.20;99.90;;;;;;5093855;28;20421;-71
2022/10/21 08:07:22;;;;;;;1.00;1.00;;;15.20;99.90;;;;;;5093687;28;20459;-68
2022/10/21 08:09:48;;;;;;;0.53;0.53;;;15.30;99.90;;;;;;5093719;28;20537;-71
2022/10/21 08:12:13;;;;;;;0.60;0.60;;;15.30;99.90;;;;;;5093794;28;20537;-71
2022/10/21 08:14:39;;;;;;;1.73;1.63;;;15.40;99.90;;;;;;5093710;28;20248;-70
2022/10/21 08:17:05;;;;;;;1.17;1.07;;;15.40;99.90;;;;;;5093846;28;20175;-71
2022/10/21 08:19:30;;;;;;;0.50;0.50;;;15.40;99.90;;;;;;5093215;28;20561;-70
2022/10/21 08:21:57;;;;;;;0.40;0.40;;;15.40;99.90;;;;;;5093758;28;20180;-71
2022/10/21 08:24:23;;;;;;;0.83;0.60;;;15.30;99.90;;;;;;5093576;28;20173;-69
2022/10/21 08:26:50;;;;;;;0.43;0.43;;;15.30;99.90;;;;;;5093328;28;20461;-71
2022/10/21 08:29:16;;;;;;;4.30;1.00;;;15.40;99.90;;;;;;5093195;28;20582;-71
2022/10/21 08:31:42;;;;;;;0.60;0.60;;;15.40;99.90;;;;;;5093414;28;20465;-71
2022/10/21 08:34:08;;;;;;;0.50;0.50;;;15.40;99.90;;;;;;5093685;28;20410;-71
2022/10/21 08:36:35;;;;;;;0.60;0.60;;;15.30;99.90;;;;;;5093533;28;20181;-72
2022/10/21 08:39:00;;;;;;;0.50;0.50;;;15.30;99.90;;;;;;5093367;28;20945;-68
2022/10/21 08:41:29;;;;;;;2.93;0.60;;;15.30;99.90;;;;;;5093398;28;20497;-68
2022/10/21 08:44:03;;;;;;;0.60;0.60;;;15.30;99.90;;;;;;5093433;28;20245;-69
2022/10/21 08:46:34;;;;;;;0.60;0.60;;;15.30;99.90;;;;;;5093487;28;20460;-69
2022/10/21 08:49:06;;;;;;;1.67;0.77;;;15.30;99.90;;;;;;5091834;28;20438;-71
2022/10/21 08:51:40;;;;;;;0.30;0.30;;;15.30;99.90;;;;;;5093360;28;20418;-69
2022/10/21 08:54:23;;;;;;;0.60;0.60;;;15.20;99.90;;;;;;5093337;28;20436;-70
2022/10/21 08:56:53;;;;;;;0.50;0.50;;;15.20;99.90;;;;;;5093555;28;20458;-70
2022/10/21 08:59:24;;;;;;;2.27;0.77;;;15.30;99.90;;;;;;5093123;28;20435;-71
2022/10/21 09:02:25;;;;;;;0.40;0.40;;;15.30;99.90;;;;;;5093397;28;20415;-70
2022/10/21 09:05:15;;;;;;;0.40;0.40;;;15.50;99.90;;;;;;5086018;28;20838;-69
2022/10/21 09:08:25;;;;;;;0.73;0.73;;;15.60;99.90;;;;;;5093060;28;20505;-69
2022/10/21 09:10:59;;;;;;;0.77;0.77;;;15.60;99.90;;;;;;5093079;28;20756;-71
2022/10/21 09:13:41;;;;;;;0.70;0.60;;;15.70;99.90;;;;;;5095368;28;20766;-69
2022/10/21 09:16:18;;;;;;;5.70;1.20;;;15.70;99.90;;;;;;5097189;28;20773;-69
2022/10/21 09:19:04;;;;;;;0.50;0.43;;;15.80;99.90;;;;;;5096914;28;20430;-71
2022/10/21 09:21:45;;;;;;;0.60;0.60;;;15.80;99.90;;;;;;5097247;28;20421;-71
2022/10/21 09:24:17;;;;;;;0.80;0.80;;;16.00;99.90;;;;;;5096794;28;20416;-69
2022/10/21 09:26:51;;;;;;;0.40;0.40;;;16.00;99.90;;;;;;5096476;28;20464;-68
2022/10/21 09:29:25;;;;;;;0.63;0.63;;;16.00;99.90;;;;;;5096641;28;20937;-71
2022/10/21 09:31:51;;;;;;;0.93;0.83;;;16.00;99.90;;;;;;5096624;28;20403;-71
2022/10/21 09:34:41;;;;;;;0.97;0.97;;;16.10;99.90;;;;;;5096808;28;20401;-68
2022/10/21 09:37:32;;;;;;;1.80;1.43;;;16.00;99.90;;;;;;5096704;28;20406;-71
2022/10/21 09:40:11;;;;;;;0.77;0.77;;;16.10;99.90;;;;;;5096423;28;20409;-71
2022/10/21 09:42:37;;;;;;;0.43;0.43;;;16.10;99.90;;;;;;5096814;28;20875;-71
2022/10/21 09:45:03;;;;;;;0.80;0.80;;;16.10;99.90;;;;;;5096529;28;20409;-70
2022/10/21 09:47:31;;;;;;;1.43;0.83;;;16.20;99.90;;;;;;5096378;28;20579;-71
2022/10/21 09:49:59;;;;;;;0.40;0.40;;;16.20;99.90;;;;;;5096185;28;20411;-71
2022/10/21 09:52:33;;;;;;;0.50;0.50;;;16.10;99.90;;;;;;5096424;28;20399;-71
2022/10/21 09:54:59;;;;;;;1.17;0.80;;;16.10;99.90;;;;;;5096702;28;20910;-68
2022/10/21 09:57:43;;;;;;;0.40;0.40;;;16.20;99.90;;;;;;5096172;28;20485;-69
2022/10/21 10:00:09;;;;;;;0.40;0.40;;;16.20;99.90;;;;;;5096159;28;20235;-70
2022/10/21 10:02:39;;;;;;;0.30;0.30;;;16.10;99.90;;;;;;5096248;28;20407;-70
2022/10/21 10:05:35;;;;;;;1.80;0.50;;;16.10;99.90;;;;;;5096269;28;20483;-70
2022/10/21 10:08:24;;;;;;;1.67;0.97;;;16.20;99.90;;;;;;5096084;28;20528;-71
2022/10/21 10:10:49;;;;;;;0.40;0.40;;;16.00;99.90;;;;;;5096040;28;20399;-68
2022/10/21 10:13:18;;;;;;;0.40;0.40;;;16.00;99.90;;;;;;5095942;28;20463;-69
2022/10/21 10:15:44;;;;;;;0.40;0.40;;;16.00;99.90;;;;;;5095811;28;20221;-72
2022/10/21 10:18:20;;;;;;;0.30;0.30;;;16.00;99.90;;;;;;5095718;28;20567;-69
2022/10/21 10:21:02;;;;;;;0.40;0.40;;;15.90;99.90;;;;;;5095667;28;20487;-69
2022/10/21 10:23:27;;;;;;;0.37;0.37;;;15.80;99.90;;;;;;5095777;28;20949;-72
2022/10/21 10:25:53;;;;;;;0.30;0.30;;;15.80;99.90;;;;;;5095865;28;20545;-72
2022/10/21 10:28:25;;;;;;;0.60;0.50;;;15.70;99.90;;;;;;5095534;28;20230;-71
2022/10/21 10:30:55;;;;;;;0.70;0.70;;;15.60;99.90;;;;;;5095540;28;20184;-69
2022/10/21 10:33:28;;;;;;;0.70;0.70;;;15.70;99.90;;;;;;5095647;28;20482;-70
2022/10/21 10:36:00;;;;;;;0.40;0.40;;;15.80;99.90;;;;;;5095726;28;20398;-71
2022/10/21 10:38:31;;;;;;;0.40;0.40;;;15.80;99.90;;;;;;5095319;28;20427;-70
2022/10/21 10:41:09;;;;;;;0.73;0.70;;;15.80;99.90;;;;;;5095126;28;20444;-71
2022/10/21 10:43:48;;;;;;;0.50;0.50;;;16.00;99.90;;;;;;5095517;28;20399;-69
2022/10/21 10:46:28;;;;;;;4.13;0.63;;;16.20;99.90;;;;;;5095371;28;20452;-69
2022/10/21 10:48:56;;;;;;;0.30;0.30;;;16.30;99.90;;;;;;5094980;28;20430;-69
2022/10/21 10:51:31;;;;;;;1.33;0.40;;;16.30;99.90;;;;;;5095371;28;20405;-71
2022/10/21 10:54:06;;;;;;;0.50;0.50;;;16.20;99.90;;;;;;5095226;28;20401;-69
2022/10/21 10:56:47;;;;;;;0.50;0.50;;;16.20;99.90;;;;;;5095179;28;20427;-70
2022/10/21 10:59:22;;;;;;;0.80;0.80;;;16.20;99.90;;;;;;5094890;28;20423;-72
2022/10/21 11:02:08;;;;;;;0.30;0.30;;;16.10;99.90;;;;;;5095011;28;20425;-70
2022/10/21 11:05:02;;;;;;;0.40;0.40;;;16.00;99.90;;;;;;5044173;28;20907;-68
2022/10/21 11:07:48;;;;;;;0.40;0.40;;;16.00;99.90;;;;;;5095112;28;20453;-70
2022/10/21 11:10:31;;;;;;;0.43;0.43;;;16.10;99.90;;;;;;5094603;28;20413;-70
2022/10/21 11:12:59;;;;;;;0.30;0.30;;;16.30;99.90;;;;;;5094801;28;20398;-71
2022/10/21 11:15:40;;;;;;;0.50;0.50;;;16.50;99.90;;;;;;5094889;28;20406;-71
2022/10/21 11:18:31;;;;;;;0.60;0.50;;;16.50;99.90;;;;;;5094589;28;20514;-72
2022/10/21 11:21:28;;;;;;;0.30;0.30;;;16.60;99.90;;;;;;5094541;28;20436;-70
2022/10/21 11:24:21;;;;;;;0.40;0.40;;;16.70;99.90;;;;;;5094453;28;20407;-70
2022/10/21 11:26:52;;;;;;;0.40;0.40;;;16.70;99.90;;;;;;5094379;28;20959;-68
2022/10/21 11:29:20;;;;;;;0.50;0.50;;;16.60;99.90;;;;;;5094174;28;20419;-68
2022/10/21 11:32:24;;;;;;;0.40;0.40;;;16.70;99.90;;;;;;5094515;28;20410;-70
2022/10/21 11:35:15;;;;;;;0.30;0.30;;;16.80;99.90;;;;;;5087234;28;20984;-69
2022/10/21 11:37:52;;;;;;;0.50;0.50;;;16.70;99.90;;;;;;5094330;28;20567;-71
2022/10/21 11:40:39;;;;;;;0.40;0.40;;;16.60;99.90;;;;;;5094080;28;20433;-71
2022/10/21 11:43:41;;;;;;;0.30;0.30;;;16.70;99.90;;;;;;5094198;28;20399;-69
2022/10/21 11:46:17;;;;;;;0.50;0.50;;;16.80;99.90;;;;;;5089979;28;20458;-70
2022/10/21 11:49:00;;;;;;;0.80;0.60;;;16.80;99.90;;;;;;5094277;28;20422;-69
2022/10/21 11:51:38;;;;;;;1.00;1.00;;;16.90;99.90;;;;;;5094095;28;20448;-70
2022/10/21 11:54:25;;;;;;;1.03;0.80;;;16.90;99.90;;;;;;5094175;28;20402;-70
2022/10/21 11:57:20;;;;;;;0.67;0.60;;;17.10;99.90;;;;;;5094178;28;20402;-71
2022/10/21 12:00:04;;;;;;;0.50;0.50;;;17.30;99.90;;;;;;5054973;28;20411;-70
2022/10/21 12:02:41;;;;;;;0.40;0.40;;;17.60;99.90;;;;;;5094021;28;20395;-69
2022/10/21 12:05:29;;;;;;;0.30;0.30;;;17.60;99.90;;;;;;5094238;28;20730;-69
2022/10/21 12:08:10;;;;;;;0.40;0.40;;;17.70;99.90;;;;;;5093915;28;20442;-71
2022/10/21 12:10:39;;;;;;;0.40;0.40;;;17.70;99.90;;;;;;5093522;28;20923;-71
2022/10/21 12:13:26;;;;;;;0.70;0.70;;;17.80;99.90;;;;;;5093818;28;20384;-70
2022/10/21 12:15:57;;;;;;;1.17;0.60;;;17.90;99.90;;;;;;5093896;28;20445;-71
2022/10/21 12:18:26;;;;;;;0.30;0.30;;;17.80;99.90;;;;;;5094014;28;20418;-72
2022/10/21 12:20:53;;;;;;;0.77;0.77;;;17.80;99.90;;;;;;5093492;28;20399;-69
2022/10/21 12:23:28;;;;;;;0.47;0.47;;;17.80;99.90;;;;;;5093691;28;20528;-72
2022/10/21 12:26:24;;;;;;;0.50;0.50;;;17.70;99.90;;;;;;5093540;28;20557;-70
2022/10/21 12:28:58;;;;;;;1.00;1.00;;;17.60;99.90;;;;;;5093220;28;20426;-71
2022/10/21 12:31:38;;;;;;;0.40;0.40;;;17.50;99.90;;;;;;5093404;28;20410;-71
2022/10/21 12:34:08;;;;;;;0.90;0.90;;;17.40;99.90;;;;;;5093465;28;20394;-71
2022/10/21 12:36:37;;;;;;;0.40;0.40;;;17.40;99.90;;;;;;5093649;28;20396;-69
2022/10/21 12:39:05;;;;;;;0.30;0.30;;;17.40;99.90;;;;;;5093217;28;20438;-68
2022/10/21 12:41:33;;;;;;;0.40;0.40;;;17.40;99.90;;;;;;5093446;28;20406;-69
2022/10/21 12:44:02;;;;;;;0.40;0.40;;;17.40;99.90;;;;;;5093433;28;20808;-69
2022/10/21 12:46:30;;;;;;;0.70;0.70;;;17.40;99.90;;;;;;5093556;28;20447;-70
2022/10/21 12:48:57;;;;;;;0.53;0.53;;;17.40;99.90;;;;;;5096254;28;20427;-71
2022/10/21 12:51:31;;;;;;;0.40;0.40;;;17.50;99.90;;;;;;5097681;28;20390;-70
2022/10/21 12:54:04;;;;;;;0.30;0.30;;;17.40;99.90;;;;;;5097357;28;20391;-70
2022/10/21 12:56:58;;;;;;;0.30;0.30;;;17.30;99.90;;;;;;5097568;28;20410;-71
2022/10/21 12:59:27;;;;;;;0.50;0.40;;;17.20;99.90;;;;;;5059977;28;21034;-69
2022/10/21 13:02:05;;;;;;;0.63;0.63;;;17.10;99.90;;;;;;5097378;28;20426;-70
2022/10/21 13:04:33;;;;;;;0.40;0.40;;;17.00;99.90;;;;;;5097217;28;20940;-69
2022/10/21 13:07:04;;;;;;;0.53;0.53;;;16.80;99.90;;;;;;5097148;28;20449;-68